Clifford A. Barnes — WRN5495 — position and weather

sailwx.info

Track history (hours):
 
Tides and Currents Weather Stations Pressure Air Temp Water Temp Dewpoint Dewpoint Depression Visibility Wind Speed Wind Dir Waves Ship Positions

Oceanographic research ship Clifford A. Barnes (USA)

Ship's website: http://www.ocean.washington.edu/vessels/CAB/cab.html

Detailed information on ship capabilities available from University of Delaware's Ocean Information Center.

Owner: UNIVERSITY OF WASHINGTON, SEATTLE, WA. More information available from US FCC via Universal Licensing System.

Last reported at 2019-Jun-19 20:30 UTC. Time now 2019-Jun-19 20:49 UTC.
Position N 47°39' W 122°19'.

Length 22 m.

Type: Pleasure craft. MMSI: 366918910.

Date/timePositionNaut miles runAvg speedWind from/ knotsBaromVisibWave heightAir tempDewpointWater temp
2019-Jun-19 20:30N 47°39' W 122°19'0 0.0
2019-Jun-19 20:00N 47°39' W 122°19'1 2.0
2019-Jun-19 19:30N 47°39' W 122°20'2 4.7
2019-Jun-19 19:00N 47°40' W 122°23'0 0.0
2019-Jun-19 18:31N 47°40' W 122°23'1 1.6
2019-Jun-19 18:01N 47°39' W 122°22'2 4.6
2019-Jun-19 17:30N 47°39' W 122°19'0 0.0
2019-Jun-19 05:14N 47°39' W 122°19'0 0.0
2019-Jun-19 05:00N 47°39' W 122°19'0 0.0
2019-Jun-19 04:30N 47°39' W 122°19'0 0.0
2019-Jun-18 06:46N 47°39' W 122°19'0 0.0
2019-Jun-18 06:30N 47°39' W 122°19'0 0.0
2019-Jun-18 06:00N 47°39' W 122°19'0 0.0
2019-Jun-18 05:30N 47°39' W 122°19'0 0.0
2019-Jun-18 05:00N 47°39' W 122°19'0 0.0
2019-Jun-18 04:21N 47°39' W 122°19'0 0.0
2019-Jun-18 04:00N 47°39' W 122°19'0 0.0
2019-Jun-18 03:30N 47°39' W 122°19'1 2.5
2019-Jun-18 03:00N 47°39' W 122°17'2 4.5
2019-Jun-18 02:30N 47°40' W 122°14'0 0.2
2019-Jun-18 02:00N 47°40' W 122°14'0 0.3
2019-Jun-18 01:31N 47°40' W 122°14'1 1.2
2019-Jun-18 01:00N 47°39' W 122°15'3 2.3
2019-Jun-17 23:50N 47°39' W 122°19'0 0.0
2019-Jun-17 23:30N 47°39' W 122°19'0 0.0
2019-Jun-17 23:00N 47°39' W 122°19'0 0.0
2019-Jun-17 22:30N 47°39' W 122°19'0 0.0
2019-Jun-17 22:00N 47°39' W 122°19'0 0.0
2019-Jun-17 21:48N 47°39' W 122°19'0 0.0
2019-Jun-17 21:45N 47°39' W 122°19'0 0.0
2019-Jun-17 21:37N 47°39' W 122°19'0 0.0
2019-Jun-17 21:21N 47°39' W 122°19'0 0.0
2019-Jun-17 21:00N 47°39' W 122°19'0 0.0
2019-Jun-16 15:02N 47°39' W 122°19'0 0.0
2019-Jun-16 15:00N 47°39' W 122°19'0 0.0
2019-Jun-16 14:30N 47°39' W 122°19'0 0.0
2019-Jun-15 07:39N 47°39' W 122°19'0 0.0
2019-Jun-15 05:11N 47°39' W 122°19'0 0.0
2019-Jun-15 05:01N 47°39' W 122°19'0 0.0
2019-Jun-15 04:30N 47°39' W 122°19'0 0.0
2019-Jun-15 04:00N 47°39' W 122°19'0 0.0
2019-Jun-15 03:30N 47°39' W 122°19'0 0.0
2019-Jun-14 18:59N 47°39' W 122°19'  
2019-Jun-12 07:27N 47°39' W 122°19'0 0.0
2019-Jun-12 06:57N 47°39' W 122°19'0 0.0
2019-Jun-12 06:27N 47°39' W 122°19'0 0.0
2019-Jun-12 06:00N 47°39' W 122°19'0 0.0
2019-Jun-12 05:24N 47°39' W 122°19'0 0.0
2019-Jun-12 04:42N 47°39' W 122°19'0 0.0
2019-Jun-12 04:12N 47°39' W 122°19'0 0.0
2019-Jun-12 03:51N 47°39' W 122°19'0 0.0
2019-Jun-12 03:24N 47°39' W 122°19'  
Track history (hours):
 
Tides and Currents Weather Stations Pressure Air Temp Water Temp Dewpoint Dewpoint Depression Visibility Wind Speed Wind Dir Waves Ship Positions

Oceanographic research ship Clifford A. Barnes (USA)

Ship's website: http://www.ocean.washington.edu/vessels/CAB/cab.html

Detailed information on ship capabilities available from University of Delaware's Ocean Information Center.

Owner: UNIVERSITY OF WASHINGTON, SEATTLE, WA. More information available from US FCC via Universal Licensing System.

Last reported at 2019-Jun-19 20:30 UTC. Time now 2019-Jun-19 20:49 UTC.
Position N 47°39' W 122°19'.

Length 22 m.

Type: Pleasure craft. MMSI: 366918910.

Date/timePositionNaut miles runAvg speedWind from/ knotsBaromVisibWave heightAir tempDewpointWater temp
2019-Jun-19 20:30N 47°39' W 122°19'0 0.0
2019-Jun-19 20:00N 47°39' W 122°19'1 2.0
2019-Jun-19 19:30N 47°39' W 122°20'2 4.7
2019-Jun-19 19:00N 47°40' W 122°23'0 0.0
2019-Jun-19 18:31N 47°40' W 122°23'1 1.6
2019-Jun-19 18:01N 47°39' W 122°22'2 4.6
2019-Jun-19 17:30N 47°39' W 122°19'0 0.0
2019-Jun-19 05:14N 47°39' W 122°19'0 0.0
2019-Jun-19 05:00N 47°39' W 122°19'0 0.0
2019-Jun-19 04:30N 47°39' W 122°19'0 0.0
2019-Jun-18 06:46N 47°39' W 122°19'0 0.0
2019-Jun-18 06:30N 47°39' W 122°19'0 0.0
2019-Jun-18 06:00N 47°39' W 122°19'0 0.0
2019-Jun-18 05:30N 47°39' W 122°19'0 0.0
2019-Jun-18 05:00N 47°39' W 122°19'0 0.0
2019-Jun-18 04:21N 47°39' W 122°19'0 0.0
2019-Jun-18 04:00N 47°39' W 122°19'0 0.0
2019-Jun-18 03:30N 47°39' W 122°19'1 2.5
2019-Jun-18 03:00N 47°39' W 122°17'2 4.5
2019-Jun-18 02:30N 47°40' W 122°14'0 0.2
2019-Jun-18 02:00N 47°40' W 122°14'0 0.3
2019-Jun-18 01:31N 47°40' W 122°14'1 1.2
2019-Jun-18 01:00N 47°39' W 122°15'3 2.3
2019-Jun-17 23:50N 47°39' W 122°19'0 0.0
2019-Jun-17 23:30N 47°39' W 122°19'0 0.0
2019-Jun-17 23:00N 47°39' W 122°19'0 0.0
2019-Jun-17 22:30N 47°39' W 122°19'0 0.0
2019-Jun-17 22:00N 47°39' W 122°19'0 0.0
2019-Jun-17 21:48N 47°39' W 122°19'0 0.0
2019-Jun-17 21:45N 47°39' W 122°19'0 0.0
2019-Jun-17 21:37N 47°39' W 122°19'0 0.0
2019-Jun-17 21:21N 47°39' W 122°19'0 0.0
2019-Jun-17 21:00N 47°39' W 122°19'0 0.0
2019-Jun-16 15:02N 47°39' W 122°19'0 0.0
2019-Jun-16 15:00N 47°39' W 122°19'0 0.0
2019-Jun-16 14:30N 47°39' W 122°19'0 0.0
2019-Jun-15 07:39N 47°39' W 122°19'0 0.0
2019-Jun-15 05:11N 47°39' W 122°19'0 0.0
2019-Jun-15 05:01N 47°39' W 122°19'0 0.0
2019-Jun-15 04:30N 47°39' W 122°19'0 0.0
2019-Jun-15 04:00N 47°39' W 122°19'0 0.0
2019-Jun-15 03:30N 47°39' W 122°19'0 0.0
2019-Jun-14 18:59N 47°39' W 122°19'  
2019-Jun-12 07:27N 47°39' W 122°19'0 0.0
2019-Jun-12 06:57N 47°39' W 122°19'0 0.0
2019-Jun-12 06:27N 47°39' W 122°19'0 0.0
2019-Jun-12 06:00N 47°39' W 122°19'0 0.0
2019-Jun-12 05:24N 47°39' W 122°19'0 0.0
2019-Jun-12 04:42N 47°39' W 122°19'0 0.0
2019-Jun-12 04:12N 47°39' W 122°19'0 0.0
2019-Jun-12 03:51N 47°39' W 122°19'0 0.0
2019-Jun-12 03:24N 47°39' W 122°19'  

Dump ship's entire track history